Philippi, West Virginia
Current Conditions -  °F | °C
As of 4:53 AM on Sunday 23 Nov 2014 (Local Time) from KCKB Reporting Station
Scattered Clouds Scattered Clouds  
Wind Chill: 41°   Ceiling: Unl
Heat Index: 41°   Visibility: 10mi
Dew Point: 24°   Wind: 0mph
Humidity: 51%   Direction: NA
Pressure: 30.12"   Gusts: NA
Location:  39.15°N, 80.04°W
Report Text: KCKB 230953Z AUTO 00000KT 10SM SCT070 05/M04 A3012 RMK AO2 SLP197 T00501044
Loading
Personal Weather Stations






























Interactive Weather Map New forecast layout! Learn more

10-Day Weather Forecast

Advertisements
Track Severe Weather on mobile